BVX326A EGLL-LSZH
Flight info
| Callsign | BVX326A |
|---|---|
| Flight time | 1h 6m |
| Altitude | 29000 |
| Route | DET L6 DVR UL9 KONAN DCT KOK DCT SISGA DCT RITAX DCT KRH M150 LAMGO/N0431F270 T721 SUL/N0418F250 T721 RILAX |
| Aircraft | A359/H-SDE2E3GHIJ3J4J5LM1ORWXY/LB1D1 |
Departure
| Time | 2026-05-04 23:58 |
|---|---|
| Airport | London Heathrow Airport (EGLL) |
Arrival
| Time | 2026-05-05 01:05 |
|---|---|
| Airport | Zürich Airport (LSZH) |
| Time | Latitude | Longitude | Altitude | Speed | Heading |
|---|---|---|---|---|---|
| 2026-05-04 23:19 | 51.46906 | -0.46409 | 95 ft | 0 kts | 56° |
| 2026-05-04 23:41 | 51.46897 | -0.46431 | 94 ft | 4 kts | 56° |
| 2026-05-04 23:42 | 51.46882 | -0.46466 | 93 ft | 2 kts | 56° |
| 2026-05-04 23:42 | 51.46871 | -0.46496 | 92 ft | 4 kts | 83° |
| 2026-05-04 23:42 | 51.46877 | -0.46532 | 93 ft | 4 kts | 136° |
| 2026-05-04 23:42 | 51.46897 | -0.46557 | 92 ft | 4 kts | 146° |
| 2026-05-04 23:43 | 51.46916 | -0.46578 | 91 ft | 1 kts | 146° |
| 2026-05-04 23:43 | 51.46916 | -0.46579 | 91 ft | 0 kts | 146° |
| 2026-05-04 23:48 | 51.46916 | -0.46578 | 91 ft | 0 kts | 146° |
| 2026-05-04 23:48 | 51.46892 | -0.46552 | 92 ft | 9 kts | 146° |
| 2026-05-04 23:49 | 51.46829 | -0.46484 | 96 ft | 12 kts | 146° |
| 2026-05-04 23:49 | 51.46750 | -0.46424 | 95 ft | 13 kts | 175° |
| 2026-05-04 23:49 | 51.46678 | -0.46433 | 96 ft | 9 kts | 214° |
| 2026-05-04 23:49 | 51.46660 | -0.46530 | 97 ft | 10 kts | 266° |
| 2026-05-04 23:50 | 51.46659 | -0.46657 | 96 ft | 11 kts | 269° |
| 2026-05-04 23:50 | 51.46658 | -0.46789 | 96 ft | 13 kts | 269° |
| 2026-05-04 23:50 | 51.46657 | -0.46938 | 96 ft | 14 kts | 269° |
| 2026-05-04 23:50 | 51.46657 | -0.47087 | 95 ft | 13 kts | 269° |
| 2026-05-04 23:51 | 51.46656 | -0.47250 | 95 ft | 16 kts | 269° |
| 2026-05-04 23:51 | 51.46656 | -0.47434 | 95 ft | 17 kts | 269° |
| 2026-05-04 23:51 | 51.46655 | -0.47588 | 95 ft | 15 kts | 270° |
| 2026-05-04 23:51 | 51.46655 | -0.47754 | 96 ft | 15 kts | 270° |
| 2026-05-04 23:52 | 51.46655 | -0.47860 | 95 ft | 13 kts | 270° |
| 2026-05-04 23:52 | 51.46654 | -0.47997 | 94 ft | 11 kts | 270° |
| 2026-05-04 23:52 | 51.46654 | -0.48110 | 94 ft | 8 kts | 270° |
| 2026-05-04 23:52 | 51.46652 | -0.48179 | 95 ft | 4 kts | 259° |
| 2026-05-04 23:53 | 51.46636 | -0.48206 | 96 ft | 3 kts | 211° |
| 2026-05-04 23:53 | 51.46628 | -0.48208 | 96 ft | 0 kts | 194° |
| 2026-05-04 23:53 | 51.46621 | -0.48210 | 93 ft | 1 kts | 189° |
| 2026-05-04 23:53 | 51.46613 | -0.48211 | 96 ft | 1 kts | 184° |
| 2026-05-04 23:54 | 51.46611 | -0.48211 | 96 ft | 0 kts | 182° |
| 2026-05-04 23:57 | 51.46560 | -0.48212 | 93 ft | 10 kts | 181° |
| 2026-05-04 23:57 | 51.46497 | -0.48202 | 97 ft | 8 kts | 149° |
| 2026-05-04 23:57 | 51.46481 | -0.48105 | 96 ft | 14 kts | 92° |
| 2026-05-04 23:57 | 51.46481 | -0.47782 | 93 ft | 56 kts | 90° |
| 2026-05-04 23:58 | 51.46485 | -0.46779 | 98 ft | 118 kts | 90° |
| 2026-05-04 23:58 | 51.46490 | -0.45199 | 173 ft | 160 kts | 88° |
| 2026-05-04 23:58 | 51.46477 | -0.43462 | 930 ft | 151 kts | 89° |
| 2026-05-04 23:58 | 51.46234 | -0.41808 | 1544 ft | 155 kts | 113° |
| 2026-05-04 23:59 | 51.45730 | -0.40245 | 1947 ft | 169 kts | 115° |
| 2026-05-04 23:59 | 51.45152 | -0.38463 | 2255 ft | 191 kts | 114° |
| 2026-05-04 23:59 | 51.44553 | -0.36366 | 2544 ft | 217 kts | 110° |
| 2026-05-04 23:59 | 51.44006 | -0.34020 | 2894 ft | 239 kts | 108° |
| 2026-05-05 00:00 | 51.43440 | -0.31430 | 3432 ft | 252 kts | 108° |
| 2026-05-05 00:00 | 51.43049 | -0.29621 | 3853 ft | 258 kts | 107° |
| 2026-05-05 00:00 | 51.42428 | -0.25869 | 4699 ft | 267 kts | 101° |
| 2026-05-05 00:00 | 51.42030 | -0.22937 | 5384 ft | 273 kts | 101° |
| 2026-05-05 00:01 | 51.41625 | -0.19944 | 5990 ft | 277 kts | 102° |
| 2026-05-05 00:01 | 51.41211 | -0.16911 | 6781 ft | 280 kts | 102° |
| 2026-05-05 00:01 | 51.40795 | -0.13862 | 7592 ft | 282 kts | 102° |
| 2026-05-05 00:01 | 51.40388 | -0.10778 | 8424 ft | 285 kts | 101° |
| 2026-05-05 00:02 | 51.40006 | -0.07653 | 9301 ft | 286 kts | 101° |
| 2026-05-05 00:02 | 51.39637 | -0.04524 | 10195 ft | 287 kts | 101° |
| 2026-05-05 00:02 | 51.39261 | -0.01305 | 10707 ft | 302 kts | 101° |
| 2026-05-05 00:02 | 51.38861 | 0.02095 | 11066 ft | 321 kts | 101° |
| 2026-05-05 00:03 | 51.38431 | 0.05697 | 11472 ft | 337 kts | 101° |
| 2026-05-05 00:03 | 51.37980 | 0.09439 | 12084 ft | 346 kts | 101° |
| 2026-05-05 00:03 | 51.37522 | 0.13246 | 12803 ft | 351 kts | 101° |
| 2026-05-05 00:03 | 51.37051 | 0.17097 | 13577 ft | 354 kts | 101° |
| 2026-05-05 00:04 | 51.36575 | 0.20983 | 14275 ft | 358 kts | 101° |
| 2026-05-05 00:04 | 51.36092 | 0.24914 | 14885 ft | 363 kts | 101° |
| 2026-05-05 00:04 | 51.35599 | 0.28888 | 15585 ft | 365 kts | 102° |
| 2026-05-05 00:04 | 51.35101 | 0.32883 | 16295 ft | 367 kts | 101° |
| 2026-05-05 00:05 | 51.34598 | 0.36915 | 16923 ft | 372 kts | 101° |
| 2026-05-05 00:05 | 51.34088 | 0.40993 | 17550 ft | 376 kts | 102° |
| 2026-05-05 00:05 | 51.33573 | 0.45107 | 18288 ft | 378 kts | 101° |
| 2026-05-05 00:05 | 51.33055 | 0.49255 | 18919 ft | 382 kts | 102° |
| 2026-05-05 00:06 | 51.32531 | 0.53456 | 19419 ft | 388 kts | 102° |
| 2026-05-05 00:06 | 51.31994 | 0.57705 | 19998 ft | 392 kts | 102° |
| 2026-05-05 00:06 | 51.31451 | 0.62000 | 20614 ft | 396 kts | 102° |
| 2026-05-05 00:06 | 51.30905 | 0.66334 | 21223 ft | 400 kts | 103° |
| 2026-05-05 00:07 | 51.30347 | 0.70711 | 21808 ft | 403 kts | 103° |
| 2026-05-05 00:07 | 51.29781 | 0.75116 | 22401 ft | 407 kts | 103° |
| 2026-05-05 00:07 | 51.29208 | 0.79563 | 22974 ft | 411 kts | 103° |
| 2026-05-05 00:07 | 51.28629 | 0.84056 | 23559 ft | 415 kts | 103° |
| 2026-05-05 00:08 | 51.28043 | 0.88588 | 24049 ft | 418 kts | 103° |
| 2026-05-05 00:08 | 51.27451 | 0.93161 | 24545 ft | 422 kts | 103° |
| 2026-05-05 00:08 | 51.26862 | 0.97704 | 24998 ft | 425 kts | 104° |
| 2026-05-05 00:08 | 51.26255 | 1.02359 | 25400 ft | 431 kts | 104° |
| 2026-05-05 00:09 | 51.25633 | 1.07119 | 25895 ft | 434 kts | 104° |
| 2026-05-05 00:09 | 51.25013 | 1.11850 | 26365 ft | 437 kts | 104° |
| 2026-05-05 00:09 | 51.24387 | 1.16612 | 26835 ft | 440 kts | 104° |
| 2026-05-05 00:09 | 51.23763 | 1.21337 | 27300 ft | 443 kts | 104° |
| 2026-05-05 00:10 | 51.23124 | 1.26164 | 27765 ft | 446 kts | 104° |
| 2026-05-05 00:10 | 51.22478 | 1.31030 | 28204 ft | 450 kts | 104° |
| 2026-05-05 00:10 | 51.21824 | 1.35932 | 28566 ft | 454 kts | 105° |
| 2026-05-05 00:10 | 51.21168 | 1.40856 | 28880 ft | 454 kts | 105° |
| 2026-05-05 00:11 | 51.20512 | 1.45780 | 28990 ft | 450 kts | 105° |
| 2026-05-05 00:11 | 51.19867 | 1.50593 | 29012 ft | 439 kts | 105° |
| 2026-05-05 00:11 | 51.19229 | 1.55326 | 29078 ft | 436 kts | 106° |
| 2026-05-05 00:11 | 51.18585 | 1.60059 | 29202 ft | 440 kts | 106° |
| 2026-05-05 00:12 | 51.17925 | 1.64870 | 29393 ft | 448 kts | 106° |
| 2026-05-05 00:12 | 51.17252 | 1.69759 | 29615 ft | 455 kts | 106° |
| 2026-05-05 00:12 | 51.16568 | 1.74725 | 29854 ft | 462 kts | 106° |
| 2026-05-05 00:12 | 51.15873 | 1.79769 | 30079 ft | 469 kts | 106° |
| 2026-05-05 00:13 | 51.15168 | 1.84879 | 30282 ft | 476 kts | 106° |
| 2026-05-05 00:13 | 51.14453 | 1.90057 | 30453 ft | 482 kts | 106° |
| 2026-05-05 00:13 | 51.13726 | 1.95297 | 30653 ft | 487 kts | 105° |
| 2026-05-05 00:13 | 51.13116 | 2.00646 | 30829 ft | 495 kts | 99° |
| 2026-05-05 00:14 | 51.12745 | 2.06119 | 31078 ft | 499 kts | 98° |
| 2026-05-05 00:14 | 51.12425 | 2.11627 | 31445 ft | 500 kts | 98° |
| 2026-05-05 00:14 | 51.12130 | 2.17137 | 31861 ft | 499 kts | 97° |
| 2026-05-05 00:14 | 51.11844 | 2.22640 | 32278 ft | 498 kts | 97° |
| 2026-05-05 00:15 | 51.11556 | 2.28131 | 32693 ft | 497 kts | 97° |
| 2026-05-05 00:15 | 51.11263 | 2.33610 | 33101 ft | 496 kts | 97° |
| 2026-05-05 00:15 | 51.10965 | 2.39075 | 33493 ft | 495 kts | 97° |
| 2026-05-05 00:15 | 51.10661 | 2.44521 | 33842 ft | 495 kts | 97° |
| 2026-05-05 00:16 | 51.10353 | 2.49989 | 34149 ft | 495 kts | 97° |
| 2026-05-05 00:16 | 51.10042 | 2.55429 | 34428 ft | 495 kts | 97° |
| 2026-05-05 00:16 | 51.09620 | 2.60849 | 34714 ft | 493 kts | 103° |
| 2026-05-05 00:16 | 51.08790 | 2.66053 | 34970 ft | 489 kts | 111° |
| 2026-05-05 00:17 | 51.07500 | 2.71039 | 35217 ft | 487 kts | 118° |
| 2026-05-05 00:17 | 51.06006 | 2.75865 | 35470 ft | 486 kts | 120° |
| 2026-05-05 00:17 | 51.04445 | 2.80634 | 35704 ft | 486 kts | 120° |
| 2026-05-05 00:17 | 51.02854 | 2.85373 | 35934 ft | 486 kts | 121° |
| 2026-05-05 00:18 | 51.01248 | 2.90114 | 36095 ft | 488 kts | 121° |
| 2026-05-05 00:18 | 50.99639 | 2.94869 | 36298 ft | 489 kts | 121° |
| 2026-05-05 00:18 | 50.98035 | 2.99625 | 36540 ft | 489 kts | 120° |
| 2026-05-05 00:18 | 50.96437 | 3.04374 | 36771 ft | 488 kts | 120° |
| 2026-05-05 00:19 | 50.94839 | 3.09131 | 36954 ft | 490 kts | 120° |
| 2026-05-05 00:19 | 50.91632 | 3.18666 | 36970 ft | 490 kts | 120° |
| 2026-05-05 00:20 | 50.88423 | 3.28178 | 36964 ft | 489 kts | 121° |
| 2026-05-05 00:20 | 50.85203 | 3.37681 | 36963 ft | 490 kts | 121° |
| 2026-05-05 00:21 | 50.81972 | 3.47178 | 36954 ft | 490 kts | 121° |
| 2026-05-05 00:21 | 50.78731 | 3.56670 | 36952 ft | 491 kts | 121° |
| 2026-05-05 00:22 | 50.75481 | 3.66154 | 36947 ft | 491 kts | 121° |
| 2026-05-05 00:22 | 50.71718 | 3.75070 | 36945 ft | 487 kts | 130° |
| 2026-05-05 00:23 | 50.67429 | 3.83324 | 36950 ft | 487 kts | 133° |
| 2026-05-05 00:23 | 50.63026 | 3.91435 | 36944 ft | 487 kts | 133° |
| 2026-05-05 00:24 | 50.58629 | 3.99555 | 36948 ft | 487 kts | 133° |
| 2026-05-05 00:24 | 50.54286 | 4.07635 | 36947 ft | 487 kts | 133° |
| 2026-05-05 00:25 | 50.49910 | 4.15768 | 36941 ft | 487 kts | 133° |
| 2026-05-05 00:25 | 50.45527 | 4.23889 | 36940 ft | 487 kts | 133° |
| 2026-05-05 00:26 | 50.41141 | 4.31990 | 36938 ft | 487 kts | 133° |
| 2026-05-05 00:26 | 50.36742 | 4.40088 | 36939 ft | 487 kts | 133° |
| 2026-05-05 00:27 | 50.32345 | 4.48156 | 36938 ft | 487 kts | 133° |
| 2026-05-05 00:27 | 50.27942 | 4.56212 | 36941 ft | 487 kts | 133° |
| 2026-05-05 00:28 | 50.23534 | 4.64253 | 36937 ft | 487 kts | 134° |
| 2026-05-05 00:28 | 50.19119 | 4.72279 | 36938 ft | 487 kts | 134° |
| 2026-05-05 00:29 | 50.14698 | 4.80292 | 36938 ft | 487 kts | 134° |
| 2026-05-05 00:29 | 50.10301 | 4.88237 | 36940 ft | 487 kts | 134° |
| 2026-05-05 00:30 | 50.05871 | 4.96216 | 36937 ft | 488 kts | 134° |
| 2026-05-05 00:30 | 50.01430 | 5.04193 | 36936 ft | 488 kts | 134° |
| 2026-05-05 00:31 | 49.96983 | 5.12155 | 36937 ft | 488 kts | 134° |
| 2026-05-05 00:31 | 49.92528 | 5.20107 | 36936 ft | 488 kts | 134° |
| 2026-05-05 00:32 | 49.88062 | 5.28055 | 36935 ft | 488 kts | 134° |
| 2026-05-05 00:32 | 49.83598 | 5.35974 | 36926 ft | 488 kts | 134° |
| 2026-05-05 00:33 | 49.79126 | 5.43885 | 36926 ft | 488 kts | 134° |
| 2026-05-05 00:33 | 49.74674 | 5.51745 | 36923 ft | 487 kts | 135° |
| 2026-05-05 00:34 | 49.70420 | 5.59216 | 36938 ft | 487 kts | 135° |
| 2026-05-05 00:34 | 49.65941 | 5.67061 | 36936 ft | 487 kts | 135° |
| 2026-05-05 00:35 | 49.61463 | 5.74884 | 36935 ft | 487 kts | 135° |
| 2026-05-05 00:35 | 49.56978 | 5.82700 | 36923 ft | 486 kts | 135° |
| 2026-05-05 00:36 | 49.52488 | 5.90499 | 36931 ft | 486 kts | 135° |
| 2026-05-05 00:36 | 49.48030 | 5.98218 | 36936 ft | 486 kts | 135° |
| 2026-05-05 00:37 | 49.43538 | 6.05976 | 36936 ft | 486 kts | 135° |
| 2026-05-05 00:37 | 49.39044 | 6.13712 | 36932 ft | 486 kts | 135° |
| 2026-05-05 00:38 | 49.34541 | 6.21440 | 36928 ft | 486 kts | 135° |
| 2026-05-05 00:38 | 49.30041 | 6.29141 | 36923 ft | 485 kts | 135° |
| 2026-05-05 00:39 | 49.25537 | 6.36826 | 36925 ft | 484 kts | 135° |
| 2026-05-05 00:39 | 49.21038 | 6.44479 | 36928 ft | 484 kts | 135° |
| 2026-05-05 00:40 | 49.16532 | 6.52122 | 36930 ft | 484 kts | 135° |
| 2026-05-05 00:40 | 49.12024 | 6.59746 | 36931 ft | 484 kts | 135° |
| 2026-05-05 00:41 | 49.07507 | 6.67365 | 36926 ft | 484 kts | 136° |
| 2026-05-05 00:41 | 49.03758 | 6.73670 | 36934 ft | 483 kts | 136° |
| 2026-05-05 00:41 | 49.00740 | 6.78735 | 36693 ft | 481 kts | 136° |
| 2026-05-05 00:42 | 48.99254 | 6.81227 | 36478 ft | 477 kts | 136° |
| 2026-05-05 00:42 | 48.97040 | 6.84938 | 36040 ft | 471 kts | 136° |
| 2026-05-05 00:42 | 48.94836 | 6.88625 | 35381 ft | 471 kts | 136° |
| 2026-05-05 00:42 | 48.92627 | 6.92308 | 34681 ft | 472 kts | 137° |
| 2026-05-05 00:43 | 48.90412 | 6.95995 | 33930 ft | 474 kts | 137° |
| 2026-05-05 00:43 | 48.88182 | 6.99700 | 33114 ft | 476 kts | 137° |
| 2026-05-05 00:43 | 48.85957 | 7.03398 | 32556 ft | 471 kts | 137° |
| 2026-05-05 00:43 | 48.83756 | 7.07057 | 32058 ft | 467 kts | 137° |
| 2026-05-05 00:44 | 48.81577 | 7.10675 | 31540 ft | 463 kts | 137° |
| 2026-05-05 00:44 | 48.79412 | 7.14261 | 31026 ft | 459 kts | 138° |
| 2026-05-05 00:44 | 48.77261 | 7.17816 | 30505 ft | 456 kts | 138° |
| 2026-05-05 00:44 | 48.75125 | 7.21341 | 29986 ft | 453 kts | 138° |
| 2026-05-05 00:45 | 48.72998 | 7.24845 | 29425 ft | 449 kts | 138° |
| 2026-05-05 00:45 | 48.70893 | 7.28308 | 28915 ft | 445 kts | 138° |
| 2026-05-05 00:45 | 48.68807 | 7.31738 | 28423 ft | 440 kts | 138° |
| 2026-05-05 00:45 | 48.66747 | 7.35121 | 27927 ft | 436 kts | 138° |
| 2026-05-05 00:46 | 48.64701 | 7.38475 | 27453 ft | 432 kts | 138° |
| 2026-05-05 00:46 | 48.62671 | 7.41799 | 26972 ft | 428 kts | 138° |
| 2026-05-05 00:46 | 48.60651 | 7.45101 | 26486 ft | 433 kts | 138° |
| 2026-05-05 00:46 | 48.58555 | 7.48502 | 26433 ft | 449 kts | 137° |
| 2026-05-05 00:47 | 48.56455 | 7.51918 | 26042 ft | 442 kts | 137° |
| 2026-05-05 00:47 | 48.54377 | 7.55302 | 25118 ft | 449 kts | 137° |
| 2026-05-05 00:47 | 48.52243 | 7.58772 | 24467 ft | 453 kts | 137° |
| 2026-05-05 00:47 | 48.50089 | 7.62273 | 23942 ft | 456 kts | 137° |
| 2026-05-05 00:48 | 48.47942 | 7.65761 | 23395 ft | 453 kts | 137° |
| 2026-05-05 00:48 | 48.45774 | 7.69282 | 22804 ft | 450 kts | 137° |
| 2026-05-05 00:48 | 48.43655 | 7.72718 | 22275 ft | 446 kts | 137° |
| 2026-05-05 00:48 | 48.41555 | 7.76117 | 21745 ft | 442 kts | 137° |
| 2026-05-05 00:49 | 48.39467 | 7.79489 | 21196 ft | 439 kts | 136° |
| 2026-05-05 00:49 | 48.37421 | 7.82788 | 20726 ft | 435 kts | 136° |
| 2026-05-05 00:49 | 48.35362 | 7.86102 | 20194 ft | 432 kts | 136° |
| 2026-05-05 00:49 | 48.33320 | 7.89384 | 19657 ft | 429 kts | 136° |
| 2026-05-05 00:50 | 48.31284 | 7.92650 | 19126 ft | 426 kts | 136° |
| 2026-05-05 00:50 | 48.29267 | 7.95884 | 18608 ft | 423 kts | 135° |
| 2026-05-05 00:50 | 48.27260 | 7.99101 | 18030 ft | 421 kts | 135° |
| 2026-05-05 00:50 | 48.25267 | 8.02299 | 17474 ft | 417 kts | 135° |
| 2026-05-05 00:51 | 48.23288 | 8.05463 | 16931 ft | 414 kts | 136° |
| 2026-05-05 00:51 | 48.21327 | 8.08591 | 16432 ft | 410 kts | 136° |
| 2026-05-05 00:51 | 48.19382 | 8.11689 | 15897 ft | 406 kts | 136° |
| 2026-05-05 00:51 | 48.17455 | 8.14755 | 15380 ft | 402 kts | 136° |
| 2026-05-05 00:52 | 48.15553 | 8.17780 | 14927 ft | 395 kts | 136° |
| 2026-05-05 00:52 | 48.13683 | 8.20751 | 14429 ft | 390 kts | 136° |
| 2026-05-05 00:52 | 48.11836 | 8.23682 | 13916 ft | 384 kts | 136° |
| 2026-05-05 00:52 | 48.10017 | 8.26567 | 13334 ft | 380 kts | 136° |
| 2026-05-05 00:53 | 48.08219 | 8.29422 | 12792 ft | 374 kts | 136° |
| 2026-05-05 00:53 | 48.06447 | 8.32230 | 12295 ft | 367 kts | 136° |
| 2026-05-05 00:53 | 48.04705 | 8.34981 | 11806 ft | 361 kts | 136° |
| 2026-05-05 00:53 | 48.02990 | 8.37685 | 11320 ft | 356 kts | 136° |
| 2026-05-05 00:54 | 48.01306 | 8.40340 | 11005 ft | 346 kts | 136° |
| 2026-05-05 00:54 | 47.99689 | 8.42887 | 10887 ft | 331 kts | 137° |
| 2026-05-05 00:54 | 47.98156 | 8.45298 | 10732 ft | 311 kts | 137° |
| 2026-05-05 00:54 | 47.96686 | 8.47557 | 10615 ft | 295 kts | 140° |
| 2026-05-05 00:55 | 47.95034 | 8.49191 | 10425 ft | 279 kts | 161° |
| 2026-05-05 00:55 | 47.93182 | 8.49673 | 10132 ft | 267 kts | 185° |
| 2026-05-05 00:55 | 47.91413 | 8.49036 | 9845 ft | 261 kts | 205° |
| 2026-05-05 00:55 | 47.89767 | 8.47775 | 9525 ft | 271 kts | 209° |
| 2026-05-05 00:56 | 47.88107 | 8.46400 | 9211 ft | 273 kts | 209° |
| 2026-05-05 00:56 | 47.86445 | 8.45031 | 8883 ft | 272 kts | 209° |
| 2026-05-05 00:56 | 47.84795 | 8.43683 | 8588 ft | 271 kts | 209° |
| 2026-05-05 00:56 | 47.83165 | 8.42359 | 8287 ft | 270 kts | 208° |
| 2026-05-05 00:57 | 47.81516 | 8.41023 | 8010 ft | 270 kts | 208° |
| 2026-05-05 00:57 | 47.79869 | 8.39689 | 7714 ft | 269 kts | 208° |
| 2026-05-05 00:57 | 47.78226 | 8.38362 | 7403 ft | 269 kts | 208° |
| 2026-05-05 00:57 | 47.76584 | 8.37031 | 7092 ft | 268 kts | 209° |
| 2026-05-05 00:58 | 47.75079 | 8.35408 | 6777 ft | 267 kts | 223° |
| 2026-05-05 00:58 | 47.73817 | 8.33475 | 6577 ft | 254 kts | 227° |
| 2026-05-05 00:58 | 47.72649 | 8.31594 | 6359 ft | 241 kts | 227° |
| 2026-05-05 00:58 | 47.71524 | 8.29794 | 6070 ft | 233 kts | 226° |
| 2026-05-05 00:59 | 47.70294 | 8.28328 | 5985 ft | 223 kts | 208° |
| 2026-05-05 00:59 | 47.68852 | 8.27671 | 5977 ft | 214 kts | 185° |
| 2026-05-05 00:59 | 47.67398 | 8.27903 | 5841 ft | 210 kts | 163° |
| 2026-05-05 00:59 | 47.66119 | 8.28951 | 5458 ft | 212 kts | 141° |
| 2026-05-05 01:00 | 47.65025 | 8.30428 | 5277 ft | 214 kts | 137° |
| 2026-05-05 01:00 | 47.63951 | 8.31957 | 5171 ft | 214 kts | 137° |
| 2026-05-05 01:00 | 47.62873 | 8.33487 | 5083 ft | 214 kts | 136° |
| 2026-05-05 01:00 | 47.61814 | 8.35018 | 4986 ft | 208 kts | 137° |
| 2026-05-05 01:01 | 47.60772 | 8.36447 | 4801 ft | 200 kts | 138° |
| 2026-05-05 01:01 | 47.59760 | 8.37833 | 4550 ft | 197 kts | 137° |
| 2026-05-05 01:01 | 47.58762 | 8.39204 | 4279 ft | 194 kts | 137° |
| 2026-05-05 01:01 | 47.57778 | 8.40551 | 4009 ft | 192 kts | 136° |
| 2026-05-05 01:02 | 47.56808 | 8.41879 | 3777 ft | 187 kts | 136° |
| 2026-05-05 01:02 | 47.55859 | 8.43177 | 3519 ft | 184 kts | 136° |
| 2026-05-05 01:02 | 47.54924 | 8.44454 | 3259 ft | 180 kts | 136° |
| 2026-05-05 01:02 | 47.54025 | 8.45682 | 3015 ft | 172 kts | 136° |
| 2026-05-05 01:03 | 47.53166 | 8.46854 | 2806 ft | 164 kts | 136° |
| 2026-05-05 01:03 | 47.52351 | 8.47967 | 2574 ft | 155 kts | 137° |
| 2026-05-05 01:03 | 47.51586 | 8.49011 | 2375 ft | 149 kts | 137° |
| 2026-05-05 01:03 | 47.50824 | 8.50050 | 2156 ft | 149 kts | 137° |
| 2026-05-05 01:04 | 47.50061 | 8.51091 | 1943 ft | 149 kts | 137° |
| 2026-05-05 01:04 | 47.48536 | 8.53169 | 1532 ft | 148 kts | 137° |
| 2026-05-05 01:04 | 47.47782 | 8.54189 | 1413 ft | 144 kts | 137° |
| 2026-05-05 01:05 | 47.47144 | 8.55061 | 1403 ft | 97 kts | 137° |
| 2026-05-05 01:05 | 47.46801 | 8.55527 | 1410 ft | 46 kts | 137° |
| 2026-05-05 01:05 | 47.46660 | 8.55718 | 1411 ft | 15 kts | 137° |
| 2026-05-05 01:05 | 47.46587 | 8.55815 | 1412 ft | 15 kts | 140° |
| 2026-05-05 01:06 | 47.46489 | 8.55903 | 1411 ft | 18 kts | 160° |
| 2026-05-05 01:06 | 47.46374 | 8.55956 | 1415 ft | 17 kts | 161° |
| 2026-05-05 01:06 | 47.46274 | 8.55990 | 1415 ft | 12 kts | 169° |
| 2026-05-05 01:06 | 47.46198 | 8.56003 | 1417 ft | 10 kts | 178° |
| 2026-05-05 01:07 | 47.46126 | 8.55994 | 1419 ft | 11 kts | 186° |
| 2026-05-05 01:07 | 47.46046 | 8.55981 | 1416 ft | 13 kts | 186° |
| 2026-05-05 01:07 | 47.45955 | 8.55943 | 1419 ft | 14 kts | 225° |
| 2026-05-05 01:07 | 47.45943 | 8.55805 | 1416 ft | 14 kts | 276° |
| 2026-05-05 01:08 | 47.45953 | 8.55667 | 1408 ft | 13 kts | 276° |
| 2026-05-05 01:08 | 47.45963 | 8.55534 | 1413 ft | 13 kts | 276° |
| 2026-05-05 01:08 | 47.45972 | 8.55404 | 1407 ft | 12 kts | 276° |
| 2026-05-05 01:08 | 47.45994 | 8.55330 | 1412 ft | 6 kts | 332° |
| 2026-05-05 01:09 | 47.46034 | 8.55333 | 1407 ft | 5 kts | 6° |
| 2026-05-05 01:09 | 47.46057 | 8.55337 | 1410 ft | 2 kts | 6° |
| 2026-05-05 01:09 | 47.46062 | 8.55337 | 1410 ft | 0 kts | 6° |
| 2026-05-05 01:32 | 47.46045 | 8.55335 | 1411 ft | 4 kts | 6° |
| 2026-05-05 01:32 | 47.46018 | 8.55330 | 1409 ft | 4 kts | 6° |